sensor_id;sensor_type;location;lat;lon;timestamp;temperature;humidity
9564;DHT22;4820;50.870;4.702;2023-04-24T00:00:11;10.10;99.90
9564;DHT22;4820;50.870;4.702;2023-04-24T00:02:43;10.10;99.90
9564;DHT22;4820;50.870;4.702;2023-04-24T00:05:16;10.10;99.90
9564;DHT22;4820;50.870;4.702;2023-04-24T00:07:44;10.10;99.90
9564;DHT22;4820;50.870;4.702;2023-04-24T00:10:11;10.10;99.90
9564;DHT22;4820;50.870;4.702;2023-04-24T00:12:37;10.00;99.90
9564;DHT22;4820;50.870;4.702;2023-04-24T00:15:03;10.00;99.90
9564;DHT22;4820;50.870;4.702;2023-04-24T00:17:29;10.00;99.90
9564;DHT22;4820;50.870;4.702;2023-04-24T00:19:54;10.00;99.90
9564;DHT22;4820;50.870;4.702;2023-04-24T00:22:30;10.00;99.90
9564;DHT22;4820;50.870;4.702;2023-04-24T00:24:56;10.00;99.90
9564;DHT22;4820;50.870;4.702;2023-04-24T00:27:21;10.00;99.90
9564;DHT22;4820;50.870;4.702;2023-04-24T00:29:48;10.00;99.90
9564;DHT22;4820;50.870;4.702;2023-04-24T00:32:14;10.00;99.90
9564;DHT22;4820;50.870;4.702;2023-04-24T00:34:40;10.00;99.90
9564;DHT22;4820;50.870;4.702;2023-04-24T00:37:06;10.00;99.90
9564;DHT22;4820;50.870;4.702;2023-04-24T00:39:32;10.00;99.90
9564;DHT22;4820;50.870;4.702;2023-04-24T00:41:58;10.00;99.90
9564;DHT22;4820;50.870;4.702;2023-04-24T00:44:23;10.00;99.90
9564;DHT22;4820;50.870;4.702;2023-04-24T00:46:49;10.00;99.90
9564;DHT22;4820;50.870;4.702;2023-04-24T00:49:20;10.00;99.90
9564;DHT22;4820;50.870;4.702;2023-04-24T00:51:45;10.00;99.90
9564;DHT22;4820;50.870;4.702;2023-04-24T00:54:15;10.00;99.90
9564;DHT22;4820;50.870;4.702;2023-04-24T00:56:42;9.90;99.90
9564;DHT22;4820;50.870;4.702;2023-04-24T00:59:09;9.90;99.90
9564;DHT22;4820;50.870;4.702;2023-04-24T01:01:35;9.90;99.90
9564;DHT22;4820;50.870;4.702;2023-04-24T01:04:01;9.80;99.90
9564;DHT22;4820;50.870;4.702;2023-04-24T01:06:28;9.80;99.90
9564;DHT22;4820;50.870;4.702;2023-04-24T01:08:57;9.80;99.90
9564;DHT22;4820;50.870;4.702;2023-04-24T01:11:24;9.80;99.90
9564;DHT22;4820;50.870;4.702;2023-04-24T01:13:50;9.80;99.90
9564;DHT22;4820;50.870;4.702;2023-04-24T01:16:19;9.80;99.90
9564;DHT22;4820;50.870;4.702;2023-04-24T01:18:46;9.80;99.90
9564;DHT22;4820;50.870;4.702;2023-04-24T01:21:15;9.80;99.90
9564;DHT22;4820;50.870;4.702;2023-04-24T01:23:43;9.80;99.90
9564;DHT22;4820;50.870;4.702;2023-04-24T01:26:09;9.80;99.90
9564;DHT22;4820;50.870;4.702;2023-04-24T01:28:36;9.70;99.90
9564;DHT22;4820;50.870;4.702;2023-04-24T01:31:02;9.80;99.90
9564;DHT22;4820;50.870;4.702;2023-04-24T01:33:28;9.70;99.90
9564;DHT22;4820;50.870;4.702;2023-04-24T01:35:54;9.80;99.90
9564;DHT22;4820;50.870;4.702;2023-04-24T01:38:23;9.80;99.90
9564;DHT22;4820;50.870;4.702;2023-04-24T01:40:50;9.70;99.90
9564;DHT22;4820;50.870;4.702;2023-04-24T01:43:16;9.70;99.90
9564;DHT22;4820;50.870;4.702;2023-04-24T01:45:42;9.70;99.90
9564;DHT22;4820;50.870;4.702;2023-04-24T01:48:08;9.70;99.90
9564;DHT22;4820;50.870;4.702;2023-04-24T01:50:34;9.60;99.90
9564;DHT22;4820;50.870;4.702;2023-04-24T01:52:59;9.60;99.90
9564;DHT22;4820;50.870;4.702;2023-04-24T01:55:26;9.50;99.90
9564;DHT22;4820;50.870;4.702;2023-04-24T01:57:52;9.50;99.90
9564;DHT22;4820;50.870;4.702;2023-04-24T02:00:20;9.40;99.90
9564;DHT22;4820;50.870;4.702;2023-04-24T02:02:46;9.40;99.90
9564;DHT22;4820;50.870;4.702;2023-04-24T02:05:12;9.30;99.90
9564;DHT22;4820;50.870;4.702;2023-04-24T02:07:37;9.30;99.90
9564;DHT22;4820;50.870;4.702;2023-04-24T02:10:03;9.30;99.90
9564;DHT22;4820;50.870;4.702;2023-04-24T02:12:30;9.30;99.90
9564;DHT22;4820;50.870;4.702;2023-04-24T02:14:56;9.30;99.90
9564;DHT22;4820;50.870;4.702;2023-04-24T02:17:21;9.30;99.90
9564;DHT22;4820;50.870;4.702;2023-04-24T02:19:48;9.30;99.90
9564;DHT22;4820;50.870;4.702;2023-04-24T02:22:13;9.30;99.90
9564;DHT22;4820;50.870;4.702;2023-04-24T02:24:39;9.30;99.90
9564;DHT22;4820;50.870;4.702;2023-04-24T02:27:05;9.30;99.90
9564;DHT22;4820;50.870;4.702;2023-04-24T02:29:31;9.30;99.90
9564;DHT22;4820;50.870;4.702;2023-04-24T02:31:57;9.30;99.90
9564;DHT22;4820;50.870;4.702;2023-04-24T02:34:22;9.30;99.90
9564;DHT22;4820;50.870;4.702;2023-04-24T02:36:49;9.30;99.90
9564;DHT22;4820;50.870;4.702;2023-04-24T02:39:15;9.30;99.90
9564;DHT22;4820;50.870;4.702;2023-04-24T02:41:42;9.20;99.90
9564;DHT22;4820;50.870;4.702;2023-04-24T02:44:08;9.30;99.90
9564;DHT22;4820;50.870;4.702;2023-04-24T02:46:34;9.20;99.90
9564;DHT22;4820;50.870;4.702;2023-04-24T02:48:59;9.20;99.90
9564;DHT22;4820;50.870;4.702;2023-04-24T02:51:25;9.20;99.90
9564;DHT22;4820;50.870;4.702;2023-04-24T02:53:52;9.10;99.90
9564;DHT22;4820;50.870;4.702;2023-04-24T02:56:18;9.10;99.90
9564;DHT22;4820;50.870;4.702;2023-04-24T02:58:43;9.10;99.90
9564;DHT22;4820;50.870;4.702;2023-04-24T03:01:09;9.10;99.90
9564;DHT22;4820;50.870;4.702;2023-04-24T03:03:36;9.10;99.90
9564;DHT22;4820;50.870;4.702;2023-04-24T03:06:02;9.10;99.90
9564;DHT22;4820;50.870;4.702;2023-04-24T03:08:27;9.20;99.90
9564;DHT22;4820;50.870;4.702;2023-04-24T03:10:53;9.20;99.90
9564;DHT22;4820;50.870;4.702;2023-04-24T03:13:19;9.20;99.90
9564;DHT22;4820;50.870;4.702;2023-04-24T03:15:44;9.20;99.90
9564;DHT22;4820;50.870;4.702;2023-04-24T03:18:11;9.20;99.90
9564;DHT22;4820;50.870;4.702;2023-04-24T03:20:37;9.20;99.90
9564;DHT22;4820;50.870;4.702;2023-04-24T03:23:03;9.20;99.90
9564;DHT22;4820;50.870;4.702;2023-04-24T03:25:29;9.20;99.90
9564;DHT22;4820;50.870;4.702;2023-04-24T03:27:54;9.20;99.90
9564;DHT22;4820;50.870;4.702;2023-04-24T03:30:20;9.10;99.90
9564;DHT22;4820;50.870;4.702;2023-04-24T03:32:46;9.10;99.90
9564;DHT22;4820;50.870;4.702;2023-04-24T03:35:12;9.10;99.90
9564;DHT22;4820;50.870;4.702;2023-04-24T03:37:37;9.10;99.90
9564;DHT22;4820;50.870;4.702;2023-04-24T03:40:03;9.10;99.90
9564;DHT22;4820;50.870;4.702;2023-04-24T03:42:31;9.10;99.90
9564;DHT22;4820;50.870;4.702;2023-04-24T03:44:57;9.10;99.90
9564;DHT22;4820;50.870;4.702;2023-04-24T03:47:22;9.10;99.90
9564;DHT22;4820;50.870;4.702;2023-04-24T03:49:48;9.10;99.90
9564;DHT22;4820;50.870;4.702;2023-04-24T03:52:13;9.10;99.90
9564;DHT22;4820;50.870;4.702;2023-04-24T03:54:39;9.10;99.90
9564;DHT22;4820;50.870;4.702;2023-04-24T03:57:05;9.00;99.90
9564;DHT22;4820;50.870;4.702;2023-04-24T03:59:31;9.00;99.90
9564;DHT22;4820;50.870;4.702;2023-04-24T04:01:56;8.90;99.90
9564;DHT22;4820;50.870;4.702;2023-04-24T04:04:22;8.90;99.90
9564;DHT22;4820;50.870;4.702;2023-04-24T04:06:48;8.90;99.90
9564;DHT22;4820;50.870;4.702;2023-04-24T04:09:14;9.00;99.90
9564;DHT22;4820;50.870;4.702;2023-04-24T04:11:40;9.00;99.90
9564;DHT22;4820;50.870;4.702;2023-04-24T04:14:06;9.00;99.90
9564;DHT22;4820;50.870;4.702;2023-04-24T04:16:31;9.00;99.90
9564;DHT22;4820;50.870;4.702;2023-04-24T04:18:57;9.10;99.90
9564;DHT22;4820;50.870;4.702;2023-04-24T04:21:23;9.10;99.90
9564;DHT22;4820;50.870;4.702;2023-04-24T04:23:49;9.10;99.90
9564;DHT22;4820;50.870;4.702;2023-04-24T04:26:15;9.20;99.90
9564;DHT22;4820;50.870;4.702;2023-04-24T04:28:40;9.20;99.90
9564;DHT22;4820;50.870;4.702;2023-04-24T04:31:07;9.20;99.90
9564;DHT22;4820;50.870;4.702;2023-04-24T04:33:33;9.20;99.90
9564;DHT22;4820;50.870;4.702;2023-04-24T04:35:59;9.20;99.90
9564;DHT22;4820;50.870;4.702;2023-04-24T04:38:26;9.10;99.90
9564;DHT22;4820;50.870;4.702;2023-04-24T04:40:55;9.20;99.90
9564;DHT22;4820;50.870;4.702;2023-04-24T04:43:23;9.20;99.90
9564;DHT22;4820;50.870;4.702;2023-04-24T04:45:49;9.20;99.90
9564;DHT22;4820;50.870;4.702;2023-04-24T04:48:17;9.30;99.90
9564;DHT22;4820;50.870;4.702;2023-04-24T04:50:44;9.30;99.90
9564;DHT22;4820;50.870;4.702;2023-04-24T04:53:09;9.20;99.90
9564;DHT22;4820;50.870;4.702;2023-04-24T04:55:36;9.30;99.90
9564;DHT22;4820;50.870;4.702;2023-04-24T04:58:02;9.20;99.90
9564;DHT22;4820;50.870;4.702;2023-04-24T05:00:28;9.20;99.90
9564;DHT22;4820;50.870;4.702;2023-04-24T05:02:59;9.20;99.90
9564;DHT22;4820;50.870;4.702;2023-04-24T05:05:25;9.20;99.90
9564;DHT22;4820;50.870;4.702;2023-04-24T05:07:50;9.20;99.90
9564;DHT22;4820;50.870;4.702;2023-04-24T05:10:16;9.30;99.90
9564;DHT22;4820;50.870;4.702;2023-04-24T05:12:41;9.30;99.90
9564;DHT22;4820;50.870;4.702;2023-04-24T05:15:07;9.30;99.90
9564;DHT22;4820;50.870;4.702;2023-04-24T05:17:33;9.30;99.90
9564;DHT22;4820;50.870;4.702;2023-04-24T05:19:59;9.30;99.90
9564;DHT22;4820;50.870;4.702;2023-04-24T05:22:26;9.30;99.90
9564;DHT22;4820;50.870;4.702;2023-04-24T05:24:51;9.30;99.90
9564;DHT22;4820;50.870;4.702;2023-04-24T05:27:17;9.20;99.90
9564;DHT22;4820;50.870;4.702;2023-04-24T05:29:43;9.20;99.90
9564;DHT22;4820;50.870;4.702;2023-04-24T05:32:09;9.20;99.90
9564;DHT22;4820;50.870;4.702;2023-04-24T05:34:34;9.20;99.90
9564;DHT22;4820;50.870;4.702;2023-04-24T05:37:00;9.20;99.90
9564;DHT22;4820;50.870;4.702;2023-04-24T05:39:26;9.10;99.90
9564;DHT22;4820;50.870;4.702;2023-04-24T05:41:52;9.10;99.90
9564;DHT22;4820;50.870;4.702;2023-04-24T05:44:18;9.10;99.90
9564;DHT22;4820;50.870;4.702;2023-04-24T05:46:43;9.10;99.90
9564;DHT22;4820;50.870;4.702;2023-04-24T05:49:09;9.10;99.90
9564;DHT22;4820;50.870;4.702;2023-04-24T05:51:35;9.10;99.90
9564;DHT22;4820;50.870;4.702;2023-04-24T05:54:01;9.10;99.90
9564;DHT22;4820;50.870;4.702;2023-04-24T05:56:28;9.10;99.90
9564;DHT22;4820;50.870;4.702;2023-04-24T05:58:54;9.10;99.90
9564;DHT22;4820;50.870;4.702;2023-04-24T06:01:20;9.10;99.90
9564;DHT22;4820;50.870;4.702;2023-04-24T06:03:46;9.10;99.90
9564;DHT22;4820;50.870;4.702;2023-04-24T06:06:12;9.10;99.90
9564;DHT22;4820;50.870;4.702;2023-04-24T06:08:38;9.10;99.90
9564;DHT22;4820;50.870;4.702;2023-04-24T06:11:03;9.20;99.90
9564;DHT22;4820;50.870;4.702;2023-04-24T06:13:29;9.20;99.90
9564;DHT22;4820;50.870;4.702;2023-04-24T06:15:55;9.20;99.90
9564;DHT22;4820;50.870;4.702;2023-04-24T06:18:20;9.20;99.90
9564;DHT22;4820;50.870;4.702;2023-04-24T06:20:46;9.10;99.90
9564;DHT22;4820;50.870;4.702;2023-04-24T06:23:12;9.10;99.90
9564;DHT22;4820;50.870;4.702;2023-04-24T06:25:38;9.10;99.90
9564;DHT22;4820;50.870;4.702;2023-04-24T06:28:04;9.10;99.90
9564;DHT22;4820;50.870;4.702;2023-04-24T06:30:30;9.10;99.90
9564;DHT22;4820;50.870;4.702;2023-04-24T06:32:56;9.10;99.90
9564;DHT22;4820;50.870;4.702;2023-04-24T06:35:22;9.10;99.90
9564;DHT22;4820;50.870;4.702;2023-04-24T06:37:48;9.10;99.90
9564;DHT22;4820;50.870;4.702;2023-04-24T06:40:14;9.10;99.90
9564;DHT22;4820;50.870;4.702;2023-04-24T06:42:39;9.10;99.90
9564;DHT22;4820;50.870;4.702;2023-04-24T06:45:05;9.10;99.90
9564;DHT22;4820;50.870;4.702;2023-04-24T06:47:31;9.10;99.90
9564;DHT22;4820;50.870;4.702;2023-04-24T06:49:57;9.10;99.90
9564;DHT22;4820;50.870;4.702;2023-04-24T06:52:23;9.10;99.90
9564;DHT22;4820;50.870;4.702;2023-04-24T06:54:49;9.10;99.90
9564;DHT22;4820;50.870;4.702;2023-04-24T06:57:14;9.10;99.90
9564;DHT22;4820;50.870;4.702;2023-04-24T06:59:41;9.10;99.90
9564;DHT22;4820;50.870;4.702;2023-04-24T07:02:07;9.10;99.90
9564;DHT22;4820;50.870;4.702;2023-04-24T07:04:33;9.10;99.90
9564;DHT22;4820;50.870;4.702;2023-04-24T07:06:59;9.10;99.90
9564;DHT22;4820;50.870;4.702;2023-04-24T07:09:26;9.10;99.90
9564;DHT22;4820;50.870;4.702;2023-04-24T07:11:52;9.10;99.90
9564;DHT22;4820;50.870;4.702;2023-04-24T07:14:20;9.10;99.90
9564;DHT22;4820;50.870;4.702;2023-04-24T07:16:46;9.20;99.90
9564;DHT22;4820;50.870;4.702;2023-04-24T07:19:13;9.20;99.90
9564;DHT22;4820;50.870;4.702;2023-04-24T07:21:39;9.20;99.90
9564;DHT22;4820;50.870;4.702;2023-04-24T07:24:05;9.30;99.90
9564;DHT22;4820;50.870;4.702;2023-04-24T07:26:34;9.30;99.90
9564;DHT22;4820;50.870;4.702;2023-04-24T07:29:00;9.40;99.90
9564;DHT22;4820;50.870;4.702;2023-04-24T07:31:26;9.40;99.90
9564;DHT22;4820;50.870;4.702;2023-04-24T07:33:51;9.40;99.90
9564;DHT22;4820;50.870;4.702;2023-04-24T07:36:17;9.40;99.90
9564;DHT22;4820;50.870;4.702;2023-04-24T07:38:47;9.40;99.90
9564;DHT22;4820;50.870;4.702;2023-04-24T07:41:14;9.30;99.90
9564;DHT22;4820;50.870;4.702;2023-04-24T07:43:40;9.30;99.90
9564;DHT22;4820;50.870;4.702;2023-04-24T07:46:07;9.30;99.90
9564;DHT22;4820;50.870;4.702;2023-04-24T07:48:33;9.30;99.90
9564;DHT22;4820;50.870;4.702;2023-04-24T07:50:59;9.30;99.90
9564;DHT22;4820;50.870;4.702;2023-04-24T07:53:25;9.40;99.90
9564;DHT22;4820;50.870;4.702;2023-04-24T07:55:51;9.40;99.90
9564;DHT22;4820;50.870;4.702;2023-04-24T07:58:16;9.50;99.90
9564;DHT22;4820;50.870;4.702;2023-04-24T08:00:42;9.50;99.90
9564;DHT22;4820;50.870;4.702;2023-04-24T08:03:08;9.50;99.90
9564;DHT22;4820;50.870;4.702;2023-04-24T08:05:33;9.50;99.90
9564;DHT22;4820;50.870;4.702;2023-04-24T08:07:59;9.60;99.90
9564;DHT22;4820;50.870;4.702;2023-04-24T08:10:25;9.60;99.90
9564;DHT22;4820;50.870;4.702;2023-04-24T08:12:51;9.70;99.90
9564;DHT22;4820;50.870;4.702;2023-04-24T08:15:17;9.80;99.90
9564;DHT22;4820;50.870;4.702;2023-04-24T08:17:43;10.00;99.90
9564;DHT22;4820;50.870;4.702;2023-04-24T08:20:10;10.10;99.90
9564;DHT22;4820;50.870;4.702;2023-04-24T08:22:39;10.30;99.90
9564;DHT22;4820;50.870;4.702;2023-04-24T08:25:06;10.40;99.90
9564;DHT22;4820;50.870;4.702;2023-04-24T08:27:32;10.40;99.90
9564;DHT22;4820;50.870;4.702;2023-04-24T08:29:58;10.50;99.90
9564;DHT22;4820;50.870;4.702;2023-04-24T08:32:26;10.50;99.90
9564;DHT22;4820;50.870;4.702;2023-04-24T08:34:56;10.50;99.90
9564;DHT22;4820;50.870;4.702;2023-04-24T08:37:22;10.40;99.90
9564;DHT22;4820;50.870;4.702;2023-04-24T08:39:49;10.30;99.90
9564;DHT22;4820;50.870;4.702;2023-04-24T08:42:16;10.20;99.90
9564;DHT22;4820;50.870;4.702;2023-04-24T08:44:43;10.30;99.90
9564;DHT22;4820;50.870;4.702;2023-04-24T08:47:10;10.40;99.90
9564;DHT22;4820;50.870;4.702;2023-04-24T08:49:37;10.50;99.90
9564;DHT22;4820;50.870;4.702;2023-04-24T08:52:04;10.60;99.90
9564;DHT22;4820;50.870;4.702;2023-04-24T08:54:31;10.70;99.90
9564;DHT22;4820;50.870;4.702;2023-04-24T08:57:02;10.80;99.90
9564;DHT22;4820;50.870;4.702;2023-04-24T08:59:30;10.80;99.90
9564;DHT22;4820;50.870;4.702;2023-04-24T09:01:56;10.90;99.90
9564;DHT22;4820;50.870;4.702;2023-04-24T09:04:23;11.20;99.90
9564;DHT22;4820;50.870;4.702;2023-04-24T09:06:56;11.20;99.90
9564;DHT22;4820;50.870;4.702;2023-04-24T09:09:25;11.10;99.90
9564;DHT22;4820;50.870;4.702;2023-04-24T09:11:52;10.90;99.90
9564;DHT22;4820;50.870;4.702;2023-04-24T09:14:20;10.80;99.90
9564;DHT22;4820;50.870;4.702;2023-04-24T09:16:46;10.80;99.90
9564;DHT22;4820;50.870;4.702;2023-04-24T09:19:12;10.80;99.90
9564;DHT22;4820;50.870;4.702;2023-04-24T09:21:38;10.80;99.90
9564;DHT22;4820;50.870;4.702;2023-04-24T09:24:07;10.70;99.90
9564;DHT22;4820;50.870;4.702;2023-04-24T09:26:35;10.70;99.90
9564;DHT22;4820;50.870;4.702;2023-04-24T09:29:02;10.80;99.90
9564;DHT22;4820;50.870;4.702;2023-04-24T09:31:28;10.90;99.90
9564;DHT22;4820;50.870;4.702;2023-04-24T09:34:00;11.00;99.90
9564;DHT22;4820;50.870;4.702;2023-04-24T09:36:31;11.20;99.90
9564;DHT22;4820;50.870;4.702;2023-04-24T09:39:02;11.40;99.90
9564;DHT22;4820;50.870;4.702;2023-04-24T09:41:28;11.70;99.90
9564;DHT22;4820;50.870;4.702;2023-04-24T09:43:57;12.00;99.90
9564;DHT22;4820;50.870;4.702;2023-04-24T09:46:30;12.00;99.90
9564;DHT22;4820;50.870;4.702;2023-04-24T09:48:57;11.80;99.90
9564;DHT22;4820;50.870;4.702;2023-04-24T09:51:34;11.70;99.90
9564;DHT22;4820;50.870;4.702;2023-04-24T09:54:01;11.60;99.90
9564;DHT22;4820;50.870;4.702;2023-04-24T09:56:27;11.40;99.90
9564;DHT22;4820;50.870;4.702;2023-04-24T09:58:54;11.40;99.90
9564;DHT22;4820;50.870;4.702;2023-04-24T10:01:40;11.40;99.90
9564;DHT22;4820;50.870;4.702;2023-04-24T10:04:23;11.50;99.90
9564;DHT22;4820;50.870;4.702;2023-04-24T10:06:50;11.60;99.90
9564;DHT22;4820;50.870;4.702;2023-04-24T10:09:18;11.70;99.90
9564;DHT22;4820;50.870;4.702;2023-04-24T10:11:46;11.90;99.90
9564;DHT22;4820;50.870;4.702;2023-04-24T10:14:19;12.00;99.90
9564;DHT22;4820;50.870;4.702;2023-04-24T10:16:49;12.30;99.90
9564;DHT22;4820;50.870;4.702;2023-04-24T10:19:16;12.60;99.90
9564;DHT22;4820;50.870;4.702;2023-04-24T10:21:44;12.70;99.90
9564;DHT22;4820;50.870;4.702;2023-04-24T10:24:17;12.70;99.90
9564;DHT22;4820;50.870;4.702;2023-04-24T10:26:45;12.70;99.90
9564;DHT22;4820;50.870;4.702;2023-04-24T10:29:14;12.60;99.90
9564;DHT22;4820;50.870;4.702;2023-04-24T10:31:41;12.50;99.90
9564;DHT22;4820;50.870;4.702;2023-04-24T10:34:09;12.60;99.90
9564;DHT22;4820;50.870;4.702;2023-04-24T10:36:36;12.50;99.90
9564;DHT22;4820;50.870;4.702;2023-04-24T10:39:07;12.40;99.90
9564;DHT22;4820;50.870;4.702;2023-04-24T10:41:37;12.50;99.90
9564;DHT22;4820;50.870;4.702;2023-04-24T10:44:07;12.60;99.90
9564;DHT22;4820;50.870;4.702;2023-04-24T10:46:33;12.60;99.90
9564;DHT22;4820;50.870;4.702;2023-04-24T10:48:58;12.70;99.90
9564;DHT22;4820;50.870;4.702;2023-04-24T10:51:43;12.70;99.90
9564;DHT22;4820;50.870;4.702;2023-04-24T10:54:29;12.70;99.90
9564;DHT22;4820;50.870;4.702;2023-04-24T10:59:44;12.70;99.90
9564;DHT22;4820;50.870;4.702;2023-04-24T11:02:10;12.60;99.90
9564;DHT22;4820;50.870;4.702;2023-04-24T11:04:35;12.40;99.90
9564;DHT22;4820;50.870;4.702;2023-04-24T11:07:02;12.30;99.90
9564;DHT22;4820;50.870;4.702;2023-04-24T11:09:30;12.20;99.90
9564;DHT22;4820;50.870;4.702;2023-04-24T11:12:07;12.10;99.90
9564;DHT22;4820;50.870;4.702;2023-04-24T11:17:34;12.20;99.90
9564;DHT22;4820;50.870;4.702;2023-04-24T11:20:10;12.40;99.90
9564;DHT22;4820;50.870;4.702;2023-04-24T11:22:38;12.60;99.90
9564;DHT22;4820;50.870;4.702;2023-04-24T11:25:09;12.70;99.90
9564;DHT22;4820;50.870;4.702;2023-04-24T11:27:44;12.80;99.90
9564;DHT22;4820;50.870;4.702;2023-04-24T11:30:12;12.70;99.90
9564;DHT22;4820;50.870;4.702;2023-04-24T11:32:42;12.60;99.90
9564;DHT22;4820;50.870;4.702;2023-04-24T11:37:45;12.50;99.90
9564;DHT22;4820;50.870;4.702;2023-04-24T11:40:18;12.30;99.90
9564;DHT22;4820;50.870;4.702;2023-04-24T11:42:49;12.40;99.90
9564;DHT22;4820;50.870;4.702;2023-04-24T11:45:18;12.40;99.90
9564;DHT22;4820;50.870;4.702;2023-04-24T11:47:45;12.60;99.90
9564;DHT22;4820;50.870;4.702;2023-04-24T11:50:17;12.60;99.90
9564;DHT22;4820;50.870;4.702;2023-04-24T11:52:45;12.60;99.90
9564;DHT22;4820;50.870;4.702;2023-04-24T11:57:43;12.70;99.90
9564;DHT22;4820;50.870;4.702;2023-04-24T12:00:16;12.70;99.90
9564;DHT22;4820;50.870;4.702;2023-04-24T12:02:44;12.70;99.90
9564;DHT22;4820;50.870;4.702;2023-04-24T12:05:19;12.70;99.90
9564;DHT22;4820;50.870;4.702;2023-04-24T12:07:45;12.80;99.90
9564;DHT22;4820;50.870;4.702;2023-04-24T12:10:11;13.00;99.90
9564;DHT22;4820;50.870;4.702;2023-04-24T12:12:36;13.10;99.90
9564;DHT22;4820;50.870;4.702;2023-04-24T12:15:07;13.30;99.90
9564;DHT22;4820;50.870;4.702;2023-04-24T12:17:34;13.20;99.90
9564;DHT22;4820;50.870;4.702;2023-04-24T12:20:06;13.10;99.90
9564;DHT22;4820;50.870;4.702;2023-04-24T12:25:11;13.00;99.90
9564;DHT22;4820;50.870;4.702;2023-04-24T12:27:37;13.10;99.90
9564;DHT22;4820;50.870;4.702;2023-04-24T12:30:04;13.00;99.90
9564;DHT22;4820;50.870;4.702;2023-04-24T12:32:31;13.00;99.90
9564;DHT22;4820;50.870;4.702;2023-04-24T12:34:57;12.90;99.90
9564;DHT22;4820;50.870;4.702;2023-04-24T12:37:31;12.80;99.90
9564;DHT22;4820;50.870;4.702;2023-04-24T12:40:11;12.60;99.90
9564;DHT22;4820;50.870;4.702;2023-04-24T12:42:48;12.60;99.90
9564;DHT22;4820;50.870;4.702;2023-04-24T12:45:15;12.60;99.90
9564;DHT22;4820;50.870;4.702;2023-04-24T12:47:42;12.70;99.90
9564;DHT22;4820;50.870;4.702;2023-04-24T12:50:09;12.90;99.90
9564;DHT22;4820;50.870;4.702;2023-04-24T12:52:35;13.00;99.90
9564;DHT22;4820;50.870;4.702;2023-04-24T12:55:01;13.10;99.90
9564;DHT22;4820;50.870;4.702;2023-04-24T12:57:29;13.00;99.90
9564;DHT22;4820;50.870;4.702;2023-04-24T12:59:56;12.90;99.90
9564;DHT22;4820;50.870;4.702;2023-04-24T13:02:27;12.90;99.90
9564;DHT22;4820;50.870;4.702;2023-04-24T13:04:53;12.80;99.90
9564;DHT22;4820;50.870;4.702;2023-04-24T13:07:19;12.80;99.90
9564;DHT22;4820;50.870;4.702;2023-04-24T13:09:45;12.80;99.90
9564;DHT22;4820;50.870;4.702;2023-04-24T13:12:13;12.90;99.90
9564;DHT22;4820;50.870;4.702;2023-04-24T13:14:39;13.10;99.90
9564;DHT22;4820;50.870;4.702;2023-04-24T13:17:05;13.40;99.90
9564;DHT22;4820;50.870;4.702;2023-04-24T13:19:39;13.60;99.90
9564;DHT22;4820;50.870;4.702;2023-04-24T13:22:06;13.70;99.90
9564;DHT22;4820;50.870;4.702;2023-04-24T13:24:32;13.80;99.90
9564;DHT22;4820;50.870;4.702;2023-04-24T13:26:58;14.00;99.90
9564;DHT22;4820;50.870;4.702;2023-04-24T13:29:25;14.20;99.90
9564;DHT22;4820;50.870;4.702;2023-04-24T13:31:51;14.40;99.90
9564;DHT22;4820;50.870;4.702;2023-04-24T13:34:19;14.60;99.90
9564;DHT22;4820;50.870;4.702;2023-04-24T13:36:45;14.60;99.90
9564;DHT22;4820;50.870;4.702;2023-04-24T13:39:11;14.60;99.90
9564;DHT22;4820;50.870;4.702;2023-04-24T13:41:37;14.50;99.90
9564;DHT22;4820;50.870;4.702;2023-04-24T13:44:04;14.40;99.90
9564;DHT22;4820;50.870;4.702;2023-04-24T13:46:30;14.40;99.90
9564;DHT22;4820;50.870;4.702;2023-04-24T13:48:56;14.30;99.90
9564;DHT22;4820;50.870;4.702;2023-04-24T13:51:23;14.20;99.90
9564;DHT22;4820;50.870;4.702;2023-04-24T13:53:52;14.10;99.90
9564;DHT22;4820;50.870;4.702;2023-04-24T13:56:18;14.00;99.90
9564;DHT22;4820;50.870;4.702;2023-04-24T13:58:44;13.90;99.90
9564;DHT22;4820;50.870;4.702;2023-04-24T14:01:09;14.00;99.90
9564;DHT22;4820;50.870;4.702;2023-04-24T14:03:37;14.10;99.90
9564;DHT22;4820;50.870;4.702;2023-04-24T14:06:03;14.10;99.90
9564;DHT22;4820;50.870;4.702;2023-04-24T14:08:28;14.10;99.90
9564;DHT22;4820;50.870;4.702;2023-04-24T14:10:54;14.10;99.90
9564;DHT22;4820;50.870;4.702;2023-04-24T14:13:20;14.10;99.90
9564;DHT22;4820;50.870;4.702;2023-04-24T14:15:46;14.30;99.90
9564;DHT22;4820;50.870;4.702;2023-04-24T14:18:12;14.30;99.90
9564;DHT22;4820;50.870;4.702;2023-04-24T14:20:37;14.30;99.90
9564;DHT22;4820;50.870;4.702;2023-04-24T14:23:03;14.20;99.90
9564;DHT22;4820;50.870;4.702;2023-04-24T14:25:30;14.20;99.90
9564;DHT22;4820;50.870;4.702;2023-04-24T14:27:56;14.10;99.90
9564;DHT22;4820;50.870;4.702;2023-04-24T14:30:22;14.10;99.90
9564;DHT22;4820;50.870;4.702;2023-04-24T14:32:48;14.00;99.90
9564;DHT22;4820;50.870;4.702;2023-04-24T14:35:14;13.90;99.90
9564;DHT22;4820;50.870;4.702;2023-04-24T14:37:40;13.80;99.90
9564;DHT22;4820;50.870;4.702;2023-04-24T14:40:09;13.80;99.90
9564;DHT22;4820;50.870;4.702;2023-04-24T14:42:35;13.80;99.90
9564;DHT22;4820;50.870;4.702;2023-04-24T14:45:01;13.90;99.90
9564;DHT22;4820;50.870;4.702;2023-04-24T14:47:27;13.90;99.90
9564;DHT22;4820;50.870;4.702;2023-04-24T14:49:52;14.00;99.90
9564;DHT22;4820;50.870;4.702;2023-04-24T14:52:18;14.10;99.90
9564;DHT22;4820;50.870;4.702;2023-04-24T14:54:44;14.10;99.90
9564;DHT22;4820;50.870;4.702;2023-04-24T14:57:10;14.10;99.90
9564;DHT22;4820;50.870;4.702;2023-04-24T14:59:36;14.00;99.90
9564;DHT22;4820;50.870;4.702;2023-04-24T15:02:02;13.90;99.90
9564;DHT22;4820;50.870;4.702;2023-04-24T15:04:28;13.80;99.90
9564;DHT22;4820;50.870;4.702;2023-04-24T15:06:55;13.70;99.90
9564;DHT22;4820;50.870;4.702;2023-04-24T15:09:21;13.70;99.90
9564;DHT22;4820;50.870;4.702;2023-04-24T15:11:48;13.70;99.90
9564;DHT22;4820;50.870;4.702;2023-04-24T15:14:15;13.60;99.90
9564;DHT22;4820;50.870;4.702;2023-04-24T15:16:41;13.50;99.90
9564;DHT22;4820;50.870;4.702;2023-04-24T15:19:06;13.40;99.90
9564;DHT22;4820;50.870;4.702;2023-04-24T15:21:32;13.30;99.90
9564;DHT22;4820;50.870;4.702;2023-04-24T15:23:58;13.30;99.90
9564;DHT22;4820;50.870;4.702;2023-04-24T15:26:24;13.20;99.90
9564;DHT22;4820;50.870;4.702;2023-04-24T15:28:51;13.30;99.90
9564;DHT22;4820;50.870;4.702;2023-04-24T15:31:17;13.40;99.90
9564;DHT22;4820;50.870;4.702;2023-04-24T15:33:43;13.60;99.90
9564;DHT22;4820;50.870;4.702;2023-04-24T15:36:09;13.70;99.90
9564;DHT22;4820;50.870;4.702;2023-04-24T15:38:35;13.90;99.90
9564;DHT22;4820;50.870;4.702;2023-04-24T15:41:02;14.00;99.90
9564;DHT22;4820;50.870;4.702;2023-04-24T15:43:27;13.90;99.90
9564;DHT22;4820;50.870;4.702;2023-04-24T15:45:57;13.90;99.90
9564;DHT22;4820;50.870;4.702;2023-04-24T15:48:22;13.90;99.90
9564;DHT22;4820;50.870;4.702;2023-04-24T15:50:48;13.80;99.90
9564;DHT22;4820;50.870;4.702;2023-04-24T15:53:14;13.70;99.90
9564;DHT22;4820;50.870;4.702;2023-04-24T15:55:47;13.60;99.90
9564;DHT22;4820;50.870;4.702;2023-04-24T15:58:13;13.60;99.90
9564;DHT22;4820;50.870;4.702;2023-04-24T16:00:39;13.50;99.90
9564;DHT22;4820;50.870;4.702;2023-04-24T16:03:05;13.50;99.90
9564;DHT22;4820;50.870;4.702;2023-04-24T16:05:31;13.50;99.90
9564;DHT22;4820;50.870;4.702;2023-04-24T16:07:56;13.50;99.90
9564;DHT22;4820;50.870;4.702;2023-04-24T16:10:22;13.50;99.90
9564;DHT22;4820;50.870;4.702;2023-04-24T16:12:48;13.60;99.90
9564;DHT22;4820;50.870;4.702;2023-04-24T16:15:16;13.70;99.90
9564;DHT22;4820;50.870;4.702;2023-04-24T16:17:42;13.70;99.90
9564;DHT22;4820;50.870;4.702;2023-04-24T16:20:08;13.60;99.90